createdAt,value
2023-06-14T00:00:02.154Z,65.23
2023-06-14T00:05:10.214Z,65.02
2023-06-14T00:10:13.651Z,64.73
2023-06-14T00:15:16.845Z,64.93
2023-06-14T00:20:20.124Z,64.44
2023-06-14T00:25:30.046Z,63.99
2023-06-14T00:30:51.782Z,63.70
2023-06-14T00:36:13.473Z,63.81
2023-06-14T00:41:16.497Z,63.09
2023-06-14T00:46:21.206Z,63.35
2023-06-14T00:51:24.467Z,63.16
2023-06-14T00:56:28.946Z,62.69
2023-06-14T01:01:34.151Z,63.23
2023-06-14T01:07:05.244Z,62.72
2023-06-14T01:12:37.013Z,62.63
2023-06-14T01:17:43.129Z,62.28
2023-06-14T01:22:53.002Z,62.48
2023-06-14T01:28:01.148Z,62.52
2023-06-14T01:33:05.852Z,61.74
2023-06-14T01:38:09.510Z,61.50
2023-06-14T01:43:15.712Z,61.13
2023-06-14T01:48:18.908Z,61.21
2023-06-14T01:53:22.285Z,60.74
2023-06-14T01:58:44.724Z,60.88
2023-06-14T02:03:47.935Z,61.44
2023-06-14T02:08:53.074Z,61.01
2023-06-14T02:13:57.389Z,61.31
2023-06-14T02:19:00.627Z,61.38
2023-06-14T02:24:03.730Z,61.74
2023-06-14T02:29:07.140Z,61.41
2023-06-14T02:34:11.609Z,62.64
2023-06-14T02:39:14.884Z,62.46
2023-06-14T02:44:20.568Z,61.83
2023-06-14T02:49:24.301Z,61.48
2023-06-14T02:54:27.349Z,62.20
2023-06-14T02:59:31.174Z,61.49
2023-06-14T03:04:38.708Z,61.86
2023-06-14T03:09:51.028Z,62.57
2023-06-14T03:14:58.294Z,62.43
2023-06-14T03:20:03.363Z,61.87
2023-06-14T03:25:09.465Z,62.07
2023-06-14T03:30:15.752Z,62.28
2023-06-14T03:35:21.857Z,62.09
2023-06-14T03:40:28.591Z,62.32
2023-06-14T03:45:37.861Z,62.86
2023-06-14T03:51:01.562Z,62.71
2023-06-14T03:56:06.318Z,61.88
2023-06-14T04:01:30.729Z,61.75
2023-06-14T04:06:36.421Z,60.39
2023-06-14T04:11:41.153Z,61.07
2023-06-14T04:16:44.152Z,60.89
2023-06-14T04:21:47.190Z,61.38
2023-06-14T04:26:53.101Z,61.41
2023-06-14T04:32:01.031Z,60.28
2023-06-14T04:37:04.477Z,59.56
2023-06-14T04:42:13.068Z,59.16
2023-06-14T04:47:17.411Z,58.18
2023-06-14T04:52:22.211Z,58.65
2023-06-14T04:57:26.732Z,58.11
2023-06-14T05:02:48.589Z,56.71
2023-06-14T05:07:52.722Z,56.53
2023-06-14T05:12:56.283Z,56.23
2023-06-14T05:17:59.710Z,56.02
2023-06-14T05:23:02.631Z,55.71
2023-06-14T05:28:06.456Z,54.79
2023-06-14T05:33:09.550Z,54.57
2023-06-14T05:38:12.621Z,54.64
2023-06-14T05:43:15.796Z,54.19
2023-06-14T05:48:18.748Z,54.00
2023-06-14T05:53:21.865Z,53.41
2023-06-14T05:58:24.811Z,53.54
2023-06-14T06:03:30.717Z,54.43
2023-06-14T06:08:34.995Z,53.18
2023-06-14T06:13:38.613Z,53.84
2023-06-14T06:18:42.623Z,53.93
2023-06-14T06:24:07.160Z,54.91
2023-06-14T06:29:10.195Z,55.14
2023-06-14T06:34:13.267Z,55.70
2023-06-14T06:39:16.605Z,55.80
2023-06-14T06:44:19.617Z,55.99
2023-06-14T06:49:26.420Z,56.47
2023-06-14T06:54:29.632Z,56.20
2023-06-14T06:59:33.083Z,56.41
2023-06-14T07:04:36.032Z,56.37
2023-06-14T07:09:39.102Z,55.14
2023-06-14T07:14:41.976Z,54.99
2023-06-14T07:19:44.968Z,55.07
2023-06-14T07:24:51.017Z,55.16
2023-06-14T07:29:54.005Z,54.29
2023-06-14T07:34:57.369Z,54.08
2023-06-14T07:40:00.315Z,53.84
2023-06-14T07:45:05.262Z,53.63
2023-06-14T07:50:09.009Z,53.54
2023-06-14T07:55:15.031Z,53.11
2023-06-14T08:00:19.671Z,53.57
2023-06-14T08:05:22.624Z,53.59
2023-06-14T08:10:25.559Z,53.22
2023-06-14T08:15:28.467Z,52.82
2023-06-14T08:20:32.878Z,52.92
2023-06-14T08:25:36.357Z,51.98
2023-06-14T08:30:39.314Z,50.07
2023-06-14T08:35:42.544Z,49.81
2023-06-14T08:40:49.260Z,49.58
2023-06-14T08:45:59.361Z,48.80
2023-06-14T08:51:06.155Z,48.57
2023-06-14T08:56:14.725Z,47.63
2023-06-14T09:01:19.125Z,48.00
2023-06-14T09:06:24.393Z,47.71
2023-06-14T09:11:28.266Z,45.49
2023-06-14T09:16:34.810Z,44.86
2023-06-14T09:21:38.649Z,45.36
2023-06-14T09:26:42.203Z,45.32
2023-06-14T09:31:48.083Z,45.82
2023-06-14T09:36:52.175Z,46.35
2023-06-14T09:41:55.200Z,46.82
2023-06-14T09:47:17.939Z,47.03
2023-06-14T09:52:22.884Z,46.96
2023-06-14T09:57:31.353Z,46.91
2023-06-14T10:02:38.767Z,47.41
2023-06-14T10:08:01.108Z,47.41
2023-06-14T10:13:04.480Z,47.60
2023-06-14T10:18:29.987Z,47.16
2023-06-14T10:23:37.020Z,46.89
2023-06-14T10:28:40.209Z,46.66
2023-06-14T10:34:01.798Z,45.65
2023-06-14T10:39:23.333Z,45.75
2023-06-14T10:44:26.418Z,45.27
2023-06-14T10:49:50.131Z,44.95
2023-06-14T10:55:16.849Z,44.01
2023-06-14T11:00:42.524Z,43.84
2023-06-14T11:05:59.965Z,44.34
2023-06-14T11:11:08.033Z,44.21
2023-06-14T11:16:18.400Z,44.58
2023-06-14T11:21:21.718Z,44.16
2023-06-14T11:26:32.333Z,43.83
2023-06-14T11:31:53.556Z,43.41
2023-06-14T11:36:57.069Z,43.74
2023-06-14T11:42:02.615Z,43.86
2023-06-14T11:47:24.413Z,43.58
2023-06-14T11:52:27.570Z,44.20
2023-06-14T11:57:31.208Z,44.13
2023-06-14T12:02:34.215Z,44.52
2023-06-14T12:08:04.614Z,45.14
2023-06-14T12:13:07.792Z,44.66
2023-06-14T12:18:12.444Z,44.54
2023-06-14T12:23:16.452Z,44.27
2023-06-14T12:28:19.448Z,43.95
2023-06-14T12:33:22.460Z,44.00
2023-06-14T12:38:26.059Z,43.86
2023-06-14T12:43:29.506Z,44.36
2023-06-14T12:48:32.660Z,43.73
2023-06-14T12:53:53.989Z,43.64
2023-06-14T12:58:57.333Z,43.63
2023-06-14T13:04:00.313Z,44.31
2023-06-14T13:09:05.062Z,44.46
2023-06-14T13:14:24.691Z,45.27
2023-06-14T13:19:28.856Z,44.70
2023-06-14T13:24:32.279Z,45.18
2023-06-14T13:29:37.355Z,45.17
2023-06-14T13:34:40.694Z,46.19
2023-06-14T13:39:44.007Z,45.26
2023-06-14T13:44:47.014Z,45.44
2023-06-14T13:49:49.995Z,45.78
2023-06-14T13:54:53.693Z,45.99
2023-06-14T14:00:02.798Z,48.03
2023-06-14T14:05:15.950Z,48.16
2023-06-14T14:10:21.439Z,48.27
2023-06-14T14:15:24.568Z,49.05
2023-06-14T14:20:29.238Z,48.44
2023-06-14T14:25:50.945Z,49.08
2023-06-14T14:30:55.034Z,49.52
2023-06-14T14:35:58.213Z,50.03
2023-06-14T14:41:01.184Z,51.69
2023-06-14T14:46:04.556Z,52.86
2023-06-14T14:51:07.605Z,52.42
2023-06-14T14:56:29.223Z,53.48
2023-06-14T15:01:32.220Z,54.67
2023-06-14T15:06:39.877Z,54.82
2023-06-14T15:11:45.539Z,54.38
2023-06-14T15:16:48.768Z,54.57
2023-06-14T15:21:51.911Z,54.63
2023-06-14T15:26:55.048Z,54.86
2023-06-14T15:31:59.389Z,55.47
2023-06-14T15:37:03.813Z,56.47
2023-06-14T15:42:08.950Z,57.29
2023-06-14T15:47:12.126Z,57.12
2023-06-14T15:52:15.308Z,57.56
2023-06-14T15:57:18.336Z,57.95
2023-06-14T16:02:39.970Z,58.71
2023-06-14T16:07:43.045Z,58.92
2023-06-14T16:12:46.108Z,59.04
2023-06-14T16:18:07.468Z,58.79
2023-06-14T16:23:10.678Z,58.87
2023-06-14T16:28:13.749Z,58.31
2023-06-14T16:33:35.190Z,58.75
2023-06-14T16:38:38.433Z,59.48
2023-06-14T16:43:41.423Z,59.53
2023-06-14T16:48:44.846Z,60.00
2023-06-14T16:53:48.113Z,62.25
2023-06-14T16:59:09.523Z,63.26
2023-06-14T17:04:31.962Z,64.26
2023-06-14T17:09:53.015Z,65.95
2023-06-14T17:14:55.781Z,64.41
2023-06-14T17:19:58.471Z,63.64
2023-06-14T17:25:01.426Z,63.69
2023-06-14T17:30:07.754Z,63.26
2023-06-14T17:35:31.768Z,62.57
2023-06-14T17:40:45.111Z,62.54
2023-06-14T17:46:11.400Z,61.72
2023-06-14T17:51:16.526Z,61.75
2023-06-14T17:56:20.945Z,61.12
2023-06-14T18:01:25.372Z,60.76
2023-06-14T18:06:28.690Z,60.99
2023-06-14T18:11:50.687Z,60.59
2023-06-14T18:16:54.139Z,60.40
2023-06-14T18:21:58.565Z,60.37
2023-06-14T18:27:02.209Z,60.25
2023-06-14T18:32:05.878Z,60.37
2023-06-14T18:37:08.853Z,60.58
2023-06-14T18:42:13.050Z,60.03
2023-06-14T18:47:16.591Z,60.13
2023-06-14T18:52:19.648Z,59.76
2023-06-14T18:57:40.957Z,59.07
2023-06-14T19:02:44.845Z,59.42
2023-06-14T19:07:48.082Z,59.36
2023-06-14T19:12:51.200Z,59.50
2023-06-14T19:18:05.571Z,59.41
2023-06-14T19:23:27.215Z,59.35
2023-06-14T19:28:30.219Z,59.57
2023-06-14T19:33:33.204Z,59.93
2023-06-14T19:38:36.242Z,60.57
2023-06-14T19:43:40.831Z,60.88
2023-06-14T19:48:44.003Z,60.64
2023-06-14T19:53:47.143Z,60.65
2023-06-14T19:59:08.828Z,61.70
2023-06-14T20:04:12.056Z,61.61
2023-06-14T20:09:18.308Z,61.45
2023-06-14T20:14:21.765Z,61.59
2023-06-14T20:19:24.935Z,61.05
2023-06-14T20:24:28.044Z,60.90
2023-06-14T20:29:34.391Z,60.95
2023-06-14T20:34:37.715Z,60.42
2023-06-14T20:39:41.392Z,60.80
2023-06-14T20:44:44.508Z,60.44
2023-06-14T20:49:47.530Z,61.07
2023-06-14T20:54:50.764Z,60.54
2023-06-14T20:59:53.977Z,60.36
2023-06-14T21:04:57.186Z,59.91
2023-06-14T21:10:00.662Z,59.92
2023-06-14T21:15:03.955Z,60.08
2023-06-14T21:20:08.133Z,60.16
2023-06-14T21:25:11.279Z,60.06
2023-06-14T21:30:19.725Z,59.95
2023-06-14T21:35:41.862Z,60.47
2023-06-14T21:40:45.889Z,60.73
2023-06-14T21:45:48.964Z,60.74
2023-06-14T21:50:52.094Z,60.62
2023-06-14T21:55:55.111Z,60.95
2023-06-14T22:01:17.295Z,60.49
2023-06-14T22:06:20.736Z,60.39
2023-06-14T22:11:23.874Z,60.93
2023-06-14T22:16:27.438Z,61.16
2023-06-14T22:21:33.667Z,61.47
2023-06-14T22:26:48.535Z,61.40
2023-06-14T22:31:52.237Z,61.42
2023-06-14T22:36:55.651Z,61.59
2023-06-14T22:41:58.764Z,61.69
2023-06-14T22:47:02.866Z,61.69
2023-06-14T22:52:06.860Z,61.10
2023-06-14T22:57:17.752Z,60.58
2023-06-14T23:02:20.958Z,59.54
2023-06-14T23:07:28.570Z,59.47
2023-06-14T23:12:31.902Z,58.78
2023-06-14T23:17:36.438Z,58.20
2023-06-14T23:22:43.094Z,57.65
2023-06-14T23:27:47.069Z,57.43
2023-06-14T23:32:51.916Z,57.20
2023-06-14T23:37:54.965Z,56.05
2023-06-14T23:43:20.693Z,54.90
2023-06-14T23:48:27.839Z,54.40
2023-06-14T23:53:49.508Z,54.86
2023-06-14T23:58:53.812Z,55.23
